地図

経路データ

SID SEASON NUMBER BASIN SUBBASIN NAME ISO_TIME NATURE LAT LON WMO_WIND WMO_PRES WMO_AGENCY TRACK_TYPE DIST2LAND LANDFALL IFLAG USA_AGENCY USA_ATCF_ID USA_LAT USA_LON USA_RECORD USA_STATUS USA_WIND USA_PRES USA_SSHS USA_R34_NE USA_R34_SE USA_R34_SW USA_R34_NW USA_R50_NE USA_R50_SE USA_R50_SW USA_R50_NW USA_R64_NE USA_R64_SE USA_R64_SW USA_R64_NW USA_POCI USA_ROCI USA_RMW USA_EYE TOKYO_LAT TOKYO_LON TOKYO_GRADE TOKYO_WIND TOKYO_PRES TOKYO_R50_DIR TOKYO_R50_LONG TOKYO_R50_SHORT TOKYO_R30_DIR TOKYO_R30_LONG TOKYO_R30_SHORT TOKYO_LAND CMA_LAT CMA_LON CMA_CAT CMA_WIND CMA_PRES HKO_LAT HKO_LON HKO_CAT HKO_WIND HKO_PRES NEWDELHI_LAT NEWDELHI_LON NEWDELHI_GRADE NEWDELHI_WIND NEWDELHI_PRES NEWDELHI_CI NEWDELHI_DP NEWDELHI_POCI REUNION_LAT REUNION_LON REUNION_TYPE REUNION_WIND REUNION_PRES REUNION_TNUM REUNION_CI REUNION_RMW REUNION_R34_NE REUNION_R34_SE REUNION_R34_SW REUNION_R34_NW REUNION_R50_NE REUNION_R50_SE REUNION_R50_SW REUNION_R50_NW REUNION_R64_NE REUNION_R64_SE REUNION_R64_SW REUNION_R64_NW BOM_LAT BOM_LON BOM_TYPE BOM_WIND BOM_PRES BOM_TNUM BOM_CI BOM_RMW BOM_R34_NE BOM_R34_SE BOM_R34_SW BOM_R34_NW BOM_R50_NE BOM_R50_SE BOM_R50_SW BOM_R50_NW BOM_R64_NE BOM_R64_SE BOM_R64_SW BOM_R64_NW BOM_ROCI BOM_POCI BOM_EYE BOM_POS_METHOD BOM_PRES_METHOD NADI_LAT NADI_LON NADI_CAT NADI_WIND NADI_PRES WELLINGTON_LAT WELLINGTON_LON WELLINGTON_WIND WELLINGTON_PRES DS824_LAT DS824_LON DS824_STAGE DS824_WIND DS824_PRES TD9636_LAT TD9636_LON TD9636_STAGE TD9636_WIND TD9636_PRES TD9635_LAT TD9635_LON TD9635_WIND TD9635_PRES TD9635_ROCI NEUMANN_LAT NEUMANN_LON NEUMANN_CLASS NEUMANN_WIND NEUMANN_PRES MLC_LAT MLC_LON MLC_CLASS MLC_WIND MLC_PRES USA_GUST BOM_GUST BOM_GUST_PER REUNION_GUST REUNION_GUST_PER USA_SEAHGT USA_SEARAD_NE USA_SEARAD_SE USA_SEARAD_SW USA_SEARAD_NW STORM_SPEED STORM_DIR
1987155N16061 1987 33 NI AS NOT_NAMED 1987-06-04 06:00:00 NR 16.1000 60.9000 main 461 461 O_________O___ jtwc_io IO031987 16.1000 60.9000 30 -1 16.1000 60.9000 1 30 3 90
1987155N16061 1987 33 NI AS NOT_NAMED 1987-06-04 09:00:00 NR 16.1000 61.0509 main 477 477 P_________P___ IO031987 16.1000 61.0500 32 -1 16.1000 61.0517 1 32 3 90
1987155N16061 1987 33 NI AS NOT_NAMED 1987-06-04 12:00:00 NR 16.1000 61.2000 main 485 485 O_________O___ jtwc_io IO031987 16.1000 61.2000 35 0 16.1000 61.2000 2 35 3 90
1987155N16061 1987 33 NI AS NOT_NAMED 1987-06-04 15:00:00 NR 16.1000 61.3466 main 492 492 P_________P___ IO031987 16.1000 61.3500 37 0 16.0999 61.3432 2 37 3 90
1987155N16061 1987 33 NI AS NOT_NAMED 1987-06-04 18:00:00 NR 16.1000 61.4932 main 509 509 O_________P___ jtwc_io IO031987 16.1000 61.5000 40 0 16.0999 61.4864 2 40 3 90
1987155N16061 1987 33 NI AS NOT_NAMED 1987-06-04 21:00:00 NR 16.0999 61.6394 main 517 517 P_________P___ IO031987 16.1000 61.6425 42 0 16.0999 61.6364 2 42 3 90
1987155N16061 1987 33 NI AS NOT_NAMED 1987-06-05 00:00:00 NR 16.1000 61.8000 main 534 534 O_________O___ jtwc_io IO031987 16.1000 61.8000 45 0 16.1000 61.8000 2 45 3 90
1987155N16061 1987 33 NI AS NOT_NAMED 1987-06-05 03:00:00 NR 16.1000 61.9870 main 550 550 P_________P___ IO031987 16.1000 61.9925 45 0 16.1000 61.9816 2 45 4 90
1987155N16061 1987 33 NI AS NOT_NAMED 1987-06-05 06:00:00 NR 16.1000 62.1888 main 568 568 O_________P___ jtwc_io IO031987 16.1000 62.2000 45 0 16.1000 62.1775 2 45 4 90
1987155N16061 1987 33 NI AS NOT_NAMED 1987-06-05 09:00:00 NR 16.1000 62.3923 main 585 585 P_________P___ IO031987 16.1000 62.4000 45 0 16.1000 62.3847 2 45 4 90
1987155N16061 1987 33 NI AS NOT_NAMED 1987-06-05 12:00:00 NR 16.1000 62.6000 main 603 603 O_________O___ jtwc_io IO031987 16.1000 62.6000 45 0 16.1000 62.6000 2 45 4 90
1987155N16061 1987 33 NI AS NOT_NAMED 1987-06-05 15:00:00 NR 16.0999 62.7950 main 621 621 P_________P___ IO031987 16.1000 62.7925 45 0 16.0998 62.7975 2 46 4 90
1987155N16061 1987 33 NI AS NOT_NAMED 1987-06-05 18:00:00 NR 16.0998 63.0025 main 639 639 O_________P___ jtwc_io IO031987 16.1000 63.0000 45 0 16.0997 63.0050 2 47 4 90
1987155N16061 1987 33 NI AS NOT_NAMED 1987-06-05 21:00:00 NR 16.0998 63.2313 main 658 658 P_________P___ IO031987 16.0999 63.2275 47 0 16.0997 63.2350 2 48 5 90
1987155N16061 1987 33 NI AS NOT_NAMED 1987-06-06 00:00:00 NR 16.1000 63.5000 main 685 685 O_________O___ jtwc_io IO031987 16.1000 63.5000 50 0 16.1000 63.5000 2 50 6 92
1987155N16061 1987 33 NI AS NOT_NAMED 1987-06-06 03:00:00 NR 16.0818 63.8268 main 714 714 P_________P___ IO031987 16.1000 63.8350 50 0 16.0636 63.8186 2 50 7 93
1987155N16061 1987 33 NI AS NOT_NAMED 1987-06-06 06:00:00 NR 16.0663 64.1854 main 752 752 O_________P___ jtwc_io IO031987 16.1000 64.2000 50 0 16.0327 64.1707 2 50 7 91
1987155N16061 1987 33 NI AS NOT_NAMED 1987-06-06 09:00:00 NR 16.0677 64.5400 main 780 780 P_________P___ IO031987 16.0999 64.5425 50 0 16.0354 64.5374 2 50 7 87
1987155N16061 1987 33 NI AS NOT_NAMED 1987-06-06 12:00:00 NR 16.1000 64.9000 main 790 761 O_________O___ jtwc_io IO031987 16.1000 64.9000 50 0 16.1000 64.9000 2 50 7 85
1987155N16061 1987 33 NI AS NOT_NAMED 1987-06-06 15:00:00 NR 16.1263 65.3039 main 761 724 P_________P___ IO031987 16.0326 65.3153 50 0 16.2199 65.2924 2 50 8 78
1987155N16061 1987 33 NI AS NOT_NAMED 1987-06-06 18:00:00 NR 16.2539 65.6845 main 716 669 O_________P___ jtwc_io IO031987 16.1000 65.7000 50 0 16.4079 65.6689 2 50 8 56
1987155N16061 1987 33 NI AS NOT_NAMED 1987-06-06 21:00:00 NR 16.5746 66.0015 main 669 622 P_________P___ IO031987 16.4825 66.0171 50 0 16.6668 65.9860 2 50 9 34
1987155N16061 1987 33 NI AS NOT_NAMED 1987-06-07 00:00:00 NR 17.0000 66.2000 main 622 589 O_________O___ jtwc_io IO031987 17.0000 66.2000 50 0 17.0000 66.2000 2 50 9 15
1987155N16061 1987 33 NI AS NOT_NAMED 1987-06-07 03:00:00 NR 17.4267 66.2329 main 589 550 P_________P___ IO031987 17.4425 66.1953 50 0 17.4109 66.2705 2 50 9 357
1987155N16061 1987 33 NI AS NOT_NAMED 1987-06-07 06:00:00 NR 17.8948 66.1679 main 550 519 O_________P___ jtwc_io IO031987 17.9000 66.1000 50 0 17.8897 66.2357 2 50 10 352
1987155N16061 1987 33 NI AS NOT_NAMED 1987-06-07 09:00:00 NR 18.3993 66.0915 main 519 485 P_________P___ IO031987 18.4000 66.0500 50 0 18.3986 66.1330 2 50 10 351
1987155N16061 1987 33 NI AS NOT_NAMED 1987-06-07 12:00:00 NR 18.9000 66.0000 main 485 442 O_________O___ jtwc_io IO031987 18.9000 66.0000 50 0 18.9000 66.0000 2 50 10 352
1987155N16061 1987 33 NI AS NOT_NAMED 1987-06-07 15:00:00 NR 19.3785 65.9487 main 449 418 P_________P___ IO031987 19.3650 65.9723 50 0 19.3920 65.9251 2 50 9 352
1987155N16061 1987 33 NI AS NOT_NAMED 1987-06-07 18:00:00 NR 19.8311 65.8626 main 418 397 O_________P___ jtwc_io IO031987 19.8000 65.9000 50 0 19.8621 65.8251 2 50 9 346
1987155N16061 1987 33 NI AS NOT_NAMED 1987-06-07 21:00:00 NR 20.2569 65.7126 main 399 393 P_________P___ IO031987 20.2375 65.7376 50 0 20.2763 65.6876 2 50 8 336
1987155N16061 1987 33 NI AS NOT_NAMED 1987-06-08 00:00:00 NR 20.6000 65.5000 main 399 398 O_________O___ jtwc_io IO031987 20.6000 65.5000 50 0 20.6000 65.5000 2 50 7 322
1987155N16061 1987 33 NI AS NOT_NAMED 1987-06-08 03:00:00 NR 20.8472 65.2267 main 416 407 P_________P___ IO031987 20.8600 65.2150 47 0 20.8343 65.2383 2 47 7 305
1987155N16061 1987 33 NI AS NOT_NAMED 1987-06-08 06:00:00 NR 20.9865 64.9151 main 418 418 O_________P___ jtwc_io IO031987 21.0000 64.9000 45 0 20.9729 64.9302 2 45 6 288
1987155N16061 1987 33 NI AS NOT_NAMED 1987-06-08 09:00:00 NR 21.0312 64.6035 main 439 439 P_________P___ IO031987 21.0374 64.5999 42 0 21.0250 64.6071 2 42 6 271
1987155N16061 1987 33 NI AS NOT_NAMED 1987-06-08 12:00:00 NR 21.0000 64.3000 main 461 454 O_________O___ jtwc_io IO031987 21.0000 64.3000 40 0 21.0000 64.3000 2 40 6 262
1987155N16061 1987 33 NI AS NOT_NAMED 1987-06-08 15:00:00 NR 20.9527 63.9785 main 454 428 P_________P___ IO031987 20.9875 63.9776 37 0 20.9178 63.9794 2 38 6 254
1987155N16061 1987 33 NI AS NOT_NAMED 1987-06-08 18:00:00 NR 20.8337 63.6956 main 432 417 O_________P___ jtwc_io IO031987 20.9000 63.7000 35 0 20.7675 63.6912 2 37 6 235
1987155N16061 1987 33 NI AS NOT_NAMED 1987-06-08 21:00:00 NR 20.6316 63.4824 main 422 413 P_________P___ IO031987 20.6799 63.4823 35 0 20.5833 63.4825 2 36 5 213
1987155N16061 1987 33 NI AS NOT_NAMED 1987-06-09 00:00:00 NR 20.4000 63.4000 main 423 423 O_________O___ jtwc_io IO031987 20.4000 63.4000 35 0 20.4000 63.4000 2 35 5 0
1987155N16061 1987 33 NI AS NOT_NAMED 1987-06-09 03:00:00 NR 20.1698 63.4896 main 443 443 P_________P___ IO031987 20.1124 63.4828 35 0 20.2272 63.4965 2 33 5 145
1987155N16061 1987 33 NI AS NOT_NAMED 1987-06-09 06:00:00 NR 19.9838 63.7081 main 473 473 O_________P___ jtwc_io IO031987 19.9000 63.7000 35 0 20.0677 63.7163 2 32 5 120
1987155N16061 1987 33 NI AS NOT_NAMED 1987-06-09 09:00:00 NR 19.8984 63.9938 main 505 505 P_________P___ IO031987 19.8476 63.9849 32 -1 19.9492 64.0027 2 31 6 99
1987155N16061 1987 33 NI AS NOT_NAMED 1987-06-09 12:00:00 NR 19.9000 64.3000 main 532 514 O_________O___ jtwc_io IO031987 19.9000 64.3000 30 -1 19.9000 64.3000 1 30 6 83
1987155N16061 1987 33 NI AS NOT_NAMED 1987-06-09 15:00:00 NR 19.9694 64.5791 main 514 490 P_________P___ IO031987 19.9775 64.5650 27 -1 19.9614 64.5932 1 28 5 69
1987155N16061 1987 33 NI AS NOT_NAMED 1987-06-09 18:00:00 NR 20.0951 64.8382 main 490 458 O_________P___ jtwc_io IO031987 20.1000 64.8000 25 -1 20.0902 64.8764 1 27 5 59
1987155N16061 1987 33 NI AS NOT_NAMED 1987-06-09 21:00:00 NR 20.2457 65.0781 main 458 438 P_________P___ IO031987 20.2425 65.0599 25 -1 20.2488 65.0964 1 26 5 48
1987155N16061 1987 33 NI AS NOT_NAMED 1987-06-10 00:00:00 NR 20.4000 65.2000 main 438 432 O_________O___ jtwc_io IO031987 20.4000 65.2000 25 -1 20.4000 65.2000 1 25 3 10
1987155N16061 1987 33 NI AS NOT_NAMED 1987-06-10 03:00:00 NR 20.5369 65.1303 main 441 436 P_________P___ IO031987 20.5725 65.1177 22 -1 20.5013 65.1429 1 23 4 314
1987155N16061 1987 33 NI AS NOT_NAMED 1987-06-10 06:00:00 NR 20.6436 64.9328 main 452 444 O_________P___ jtwc_io IO031987 20.7000 64.9000 20 -1 20.5873 64.9655 1 22 4 290
1987155N16061 1987 33 NI AS NOT_NAMED 1987-06-10 09:00:00 NR 20.6885 64.6889 main 457 457 P_________P___ IO031987 20.7225 64.6724 20 -1 20.6545 64.7053 1 21 5 276
1987155N16061 1987 33 NI AS NOT_NAMED 1987-06-10 12:00:00 NR 20.7000 64.4000 main 477 475 O_________O___ jtwc_io IO031987 20.7000 64.4000 20 -1 20.7000 64.4000 1 20 5 272
1987155N16061 1987 33 NI AS NOT_NAMED 1987-06-10 15:00:00 NR 20.7067 64.1128 main 475 446 P_________P___ IO031987 20.6999 64.1150 20 -1 20.7135 64.1107 1 21 6 270
1987155N16061 1987 33 NI AS NOT_NAMED 1987-06-10 18:00:00 NR 20.7038 63.7935 main 446 417 O_________P___ jtwc_io IO031987 20.7000 63.8000 20 -1 20.7076 63.7871 1 22 6 269
1987155N16061 1987 33 NI AS NOT_NAMED 1987-06-10 21:00:00 NR 20.6989 63.4513 main 417 380 P_________P___ IO031987 20.7000 63.4575 22 -1 20.6979 63.4450 1 23 6 270
1987155N16061 1987 33 NI AS NOT_NAMED 1987-06-11 00:00:00 NR 20.7000 63.1000 main 380 352 O_________O___ jtwc_io IO031987 20.7000 63.1000 25 -1 20.7000 63.1000 1 25 7 269
1987155N16061 1987 33 NI AS NOT_NAMED 1987-06-11 03:00:00 NR 20.6920 62.7484 main 343 317 P_________P___ IO031987 20.6850 62.7424 27 -1 20.6991 62.7544 1 25 6 271
1987155N16061 1987 33 NI AS NOT_NAMED 1987-06-11 06:00:00 NR 20.7088 62.4060 main 317 284 O_________P___ jtwc_io IO031987 20.7000 62.4000 30 -1 20.7176 62.4120 1 25 6 277
1987155N16061 1987 33 NI AS NOT_NAMED 1987-06-11 09:00:00 NR 20.7661 62.0868 main 284 252 P_________P___ IO031987 20.7549 62.0849 27 -1 20.7773 62.0887 1 25 6 289
1987155N16061 1987 33 NI AS NOT_NAMED 1987-06-11 12:00:00 NR 20.9000 61.8000 main 252 222 O_________O___ jtwc_io IO031987 20.9000 61.8000 25 -1 20.9000 61.8000 1 25 6 306
1987155N16061 1987 33 NI AS NOT_NAMED 1987-06-11 15:00:00 NR 21.1390 61.5422 main 214 178 P_________P___ IO031987 21.1775 61.5276 25 -1 21.1005 61.5567 1 25 7 320
1987155N16061 1987 33 NI AS NOT_NAMED 1987-06-11 18:00:00 NR 21.4325 61.3254 main 178 154 O_________P___ jtwc_io IO031987 21.5000 61.3000 25 -1 21.3649 61.3508 1 25 7 328
1987155N16061 1987 33 NI AS NOT_NAMED 1987-06-11 21:00:00 NR 21.7209 61.1509 main 154 125 P_________P___ IO031987 21.7700 61.1324 25 -1 21.6719 61.1695 1 25 6 332
1987155N16061 1987 33 NI AS NOT_NAMED 1987-06-12 00:00:00 NR 22.0000 61.0000 main 125 O_________O___ jtwc_io IO031987 22.0000 61.0000 25 -1 22.0000 61.0000 1 25 6 333

IBTrACS Databaseについて

本データベースは、米国NOAAが公開する1842年以降の世界の熱帯低気圧のベストトラックデータアーカイブInternational Best Track Archive for Climate Stewardship (IBTrACS)を、ウェブで閲覧しやすい形式に変換したものです。

最終更新日:2021-10-08